Aviation Digital Data Service (ADDS)

Output produced by METARs form (1331 UTC 16 August 2022)
found at http://aviationweather.gov/metar/data/
 
Forecast for: EPCE (CEWICE AIRBASE , PL)
Text: TAF EPCE 161100Z 1612/1621 15006KT 9999 BKN034
Forecast period: 1200 to 2100 UTC 16 August 2022
Forecast type: FROM: standard forecast or significant change
Winds: from the SSE (150 degrees) at 7 MPH (6 knots; 3.1 m/s)
Visibility: 6 or more miles (10+ km)
Ceiling: 3400 feet AGL
Clouds: broken clouds at 3400 feet AGL
Weather: no significant weather forecast for this period
Text: TEMPO 1613/1621 VRB10G20KT 5000 SHRA BKN020CB
Forecast period: 1300 to 2100 UTC 16 August 2022
Forecast type: TEMPORARY: The following changes expected for less than half the time period
Winds: variable direction winds at 12 MPH (10 knots; 5.1 m/s)
gusting to 23 MPH (20 knots; 10.3 m/s)
Visibility: 3 miles (5 km)
Ceiling: 2000 feet AGL
Clouds: broken clouds at 2000 feet AGL
Weather: SHRA  (rain showers)
Text: PROB30
Forecast period: 1400 to 2100 UTC 16 August 2022
Forecast type: TEMPORARY: The following changes expected for less than half the time period
Winds: variable direction winds at 17 MPH (15 knots; 7.7 m/s)
gusting to 29 MPH (25 knots; 12.9 m/s)
Visibility: 1.86 miles (2.99 km)
Ceiling: 1200 feet AGL
Clouds: broken clouds at 1200 feet AGL
Weather: TSRA  (rain associated with thunderstorm(s))

Forecast for: EPDA (DARTOWEK NAVAL , PL)
Text: TAF EPDA 161100Z 1612/1621 36006KT CAVOK
Forecast period: 1200 to 1900 UTC 16 August 2022
Forecast type: FROM: standard forecast or significant change
Winds: from the N (360 degrees) at 7 MPH (6 knots; 3.1 m/s)
Visibility: 6 or more miles (10+ km)
Ceiling: unknown
Clouds: missing
Weather: NSW  (no significant weather)
Text: PROB30
Forecast period: 1400 to 2100 UTC 16 August 2022
Forecast type: TEMPORARY: The following changes expected for less than half the time period
Winds: variable direction winds at 17 MPH (15 knots; 7.7 m/s)
gusting to 29 MPH (25 knots; 12.9 m/s)
Visibility: 3 miles (5 km)
Ceiling: 2000 feet AGL
Clouds: broken clouds at 2000 feet AGL
Weather: TSRA  (rain associated with thunderstorm(s))
Text: TEMPO 1614/1621 VRB15G25KT 5000 TSRA BKN020CB
Forecast period: 1900 to 2100 UTC 16 August 2022
Forecast type: BECOMING: Conditions expected to become as follows by 2100 UTC 16 August 2022
Winds: from the E (90 degrees) at 6 MPH (5 knots; 2.6 m/s)
Visibility: 6 or more miles (10+ km)
Ceiling: unknown
Clouds: missing
Weather: NSW  (no significant weather)

Forecast for: EPDE (DEBLIN-IRENA , PL)
Text: TAF EPDE 161100Z 1612/1621 04010KT CAVOK
Forecast period: 1200 to 2100 UTC 16 August 2022
Forecast type: FROM: standard forecast or significant change
Winds: from the NE (40 degrees) at 12 MPH (10 knots; 5.1 m/s)
Visibility: 6 or more miles (10+ km)
Ceiling: unknown
Clouds: missing
Weather: NSW  (no significant weather)
Text: PROB30 1612/1614 6000 SHRA TSRA BKN030CB
Forecast period: 1200 to 1400 UTC 16 August 2022
Forecast type: PROBABLE: 30 percent likelihood of the following during this time
Visibility: 4 miles (6 km)
Ceiling: 3000 feet AGL
Clouds: broken clouds at 3000 feet AGL
Weather: SHRA TSRA  (rain showers, rain associated with thunderstorm(s))

Forecast for: EPKS (KRZESINY ARPT , PL)
Text: TAF EPKS 161100Z 1612/1621 29008KT CAVOK
Forecast period: 1200 to 2100 UTC 16 August 2022
Forecast type: FROM: standard forecast or significant change
Winds: from the WNW (290 degrees) at 9 MPH (8 knots; 4.1 m/s)
Visibility: 6 or more miles (10+ km)
Ceiling: unknown
Clouds: missing
Weather: NSW  (no significant weather)
Text: PROB30
Forecast period: 1300 to 1800 UTC 16 August 2022
Forecast type: TEMPORARY: The following changes expected for less than half the time period
Winds: variable direction winds at 17 MPH (15 knots; 7.7 m/s)
gusting to 29 MPH (25 knots; 12.9 m/s)
Visibility: 3 miles (5 km)
Ceiling: 2000 feet AGL
Clouds: broken clouds at 2000 feet AGL
Weather: SHRA  (rain showers)

Forecast for: EPLK (LASK ARPT , PL)
Text: TAF EPLK 161100Z 1612/1621 VRB03KT 9999 SCT030
Forecast period: 1200 to 2100 UTC 16 August 2022
Forecast type: FROM: standard forecast or significant change
Winds: variable direction winds at 3 MPH (3 knots; 1.5 m/s)
Visibility: 6 or more miles (10+ km)
Ceiling: at least 12,000 feet AGL
Clouds: scattered clouds at 3000 feet AGL
Weather: no significant weather forecast for this period
Text: TEMPO 1615/1621 VRB15G25KT 5000 SHRA BKN020CB
Forecast period: 1500 to 2100 UTC 16 August 2022
Forecast type: TEMPORARY: The following changes expected for less than half the time period
Winds: variable direction winds at 17 MPH (15 knots; 7.7 m/s)
gusting to 29 MPH (25 knots; 12.9 m/s)
Visibility: 3 miles (5 km)
Ceiling: 2000 feet AGL
Clouds: broken clouds at 2000 feet AGL
Weather: SHRA  (rain showers)

Forecast for: EPMB (MALBORK , PL)
Text: TAF EPMB 161100Z 1612/1621 12008KT CAVOK
Forecast period: 1200 to 1700 UTC 16 August 2022
Forecast type: FROM: standard forecast or significant change
Winds: from the ESE (120 degrees) at 9 MPH (8 knots; 4.1 m/s)
Visibility: 6 or more miles (10+ km)
Ceiling: unknown
Clouds: missing
Weather: NSW  (no significant weather)
Text: TEMPO 1613/1619 SCT045CB
Forecast period: 1300 to 1900 UTC 16 August 2022
Forecast type: TEMPORARY: The following changes expected for less than half the time period
Visibility: missing
Ceiling: at least 12,000 feet AGL
Clouds: scattered clouds at 4500 feet AGL
Weather: no significant weather forecast for this period
Text: PROB30
Forecast period: 1300 to 1900 UTC 16 August 2022
Forecast type: TEMPORARY: The following changes expected for less than half the time period
Winds: variable direction winds at 17 MPH (15 knots; 7.7 m/s)
gusting to 29 MPH (25 knots; 12.9 m/s)
Visibility: 3 miles (5 km)
Ceiling: 3500 feet AGL
Clouds: broken clouds at 3500 feet AGL
Weather: SHRA TSRA  (rain showers, rain associated with thunderstorm(s))
Text: TEMPO 1613/1619 VRB15G25KT 5000 SHRA TSRA BKN035CB
Forecast period: 1700 to 2100 UTC 16 August 2022
Forecast type: BECOMING: Conditions expected to become as follows by 2000 UTC 16 August 2022
Winds: variable direction winds at 3 MPH (3 knots; 1.5 m/s)
Visibility: 6 or more miles (10+ km)
Ceiling: unknown
Clouds: missing
Weather: NSW  (no significant weather)

Forecast for: EPMI (TWELTH AIRBASE , PL)
Text: TAF EPMI 161100Z 1612/1621 VRB03KT CAVOK
Forecast period: 1200 to 2100 UTC 16 August 2022
Forecast type: FROM: standard forecast or significant change
Winds: variable direction winds at 3 MPH (3 knots; 1.5 m/s)
Visibility: 6 or more miles (10+ km)
Ceiling: unknown
Clouds: missing
Weather: NSW  (no significant weather)
Text: TEMPO 1613/1621 SHRA BKN030CB
Forecast period: 1300 to 2100 UTC 16 August 2022
Forecast type: TEMPORARY: The following changes expected for less than half the time period
Visibility: missing
Ceiling: 3000 feet AGL
Clouds: broken clouds at 3000 feet AGL
Weather: SHRA  (rain showers)
Text: PROB30
Forecast period: 1500 to 2100 UTC 16 August 2022
Forecast type: TEMPORARY: The following changes expected for less than half the time period
Winds: variable direction winds at 17 MPH (15 knots; 7.7 m/s)
gusting to 29 MPH (25 knots; 12.9 m/s)
Visibility: 1.86 miles (2.99 km)
Ceiling: 1500 feet AGL
Clouds: broken clouds at 1500 feet AGL
Weather: TSRA  (rain associated with thunderstorm(s))

Forecast for: EPOK (GDYNIA-BABIE DO , PL)
Text: TAF EPOK 161100Z 1612/1621 12010KT CAVOK
Forecast period: 1200 to 2100 UTC 16 August 2022
Forecast type: FROM: standard forecast or significant change
Winds: from the ESE (120 degrees) at 12 MPH (10 knots; 5.1 m/s)
Visibility: 6 or more miles (10+ km)
Ceiling: unknown
Clouds: missing
Weather: NSW  (no significant weather)
Text: TEMPO 1613/1621 VRB15G30KT 3000 TSRA BKN030CB
Forecast period: 1300 to 2100 UTC 16 August 2022
Forecast type: TEMPORARY: The following changes expected for less than half the time period
Winds: variable direction winds at 17 MPH (15 knots; 7.7 m/s)
gusting to 34 MPH (30 knots; 15.4 m/s)
Visibility: 1.86 miles (2.99 km)
Ceiling: 3000 feet AGL
Clouds: broken clouds at 3000 feet AGL
Weather: TSRA  (rain associated with thunderstorm(s))
Text: PROB30
Forecast period: 1500 to 2000 UTC 16 August 2022
Forecast type: TEMPORARY: The following changes expected for less than half the time period
Winds: variable direction winds at 23 MPH (20 knots; 10.3 m/s)
gusting to 46 MPH (40 knots; 20.6 m/s)
Visibility: 0.62 miles (1.00 km)
Ceiling: 2000 feet AGL
Clouds: scattered clouds at 1000 feet AGL
broken clouds at 2000 feet AGL
Weather: TSGR  (hail associated with thunderstorm(s))

Forecast for: EPPW (POWIDZ AIRPORT , PL)
Text: TAF EPPW 161100Z 1612/1621 VRB04KT CAVOK
Forecast period: 1200 to 2100 UTC 16 August 2022
Forecast type: FROM: standard forecast or significant change
Winds: variable direction winds at 5 MPH (4 knots; 2.1 m/s)
Visibility: 6 or more miles (10+ km)
Ceiling: unknown
Clouds: missing
Weather: NSW  (no significant weather)
Text: TEMPO 1612/1621 SHRA BKN033CB
Forecast period: 1200 to 2100 UTC 16 August 2022
Forecast type: TEMPORARY: The following changes expected for less than half the time period
Visibility: missing
Ceiling: 3300 feet AGL
Clouds: broken clouds at 3300 feet AGL
Weather: SHRA  (rain showers)
Text: PROB30
Forecast period: 1200 to 2000 UTC 16 August 2022
Forecast type: TEMPORARY: The following changes expected for less than half the time period
Winds: variable direction winds at 17 MPH (15 knots; 7.7 m/s)
gusting to 29 MPH (25 knots; 12.9 m/s)
Visibility: 3 miles (5 km)
Ceiling: 1700 feet AGL
Clouds: broken clouds at 1700 feet AGL
Weather: TSRA  (rain associated with thunderstorm(s))

Forecast for: EPRA (RADOM AIRPORT , PL)
Text: TAF EPRA 161100Z 1612/1621 07005KT CAVOK
Forecast period: 1200 to 2100 UTC 16 August 2022
Forecast type: FROM: standard forecast or significant change
Winds: from the ENE (70 degrees) at 6 MPH (5 knots; 2.6 m/s)
Visibility: 6 or more miles (10+ km)
Ceiling: unknown
Clouds: missing
Weather: NSW  (no significant weather)
Text: TEMPO 1612/1618 SHRA BKN045CB
Forecast period: 1200 to 1800 UTC 16 August 2022
Forecast type: TEMPORARY: The following changes expected for less than half the time period
Visibility: missing
Ceiling: 4500 feet AGL
Clouds: broken clouds at 4500 feet AGL
Weather: SHRA  (rain showers)
Text: PROB30
Forecast period: 1200 to 1800 UTC 16 August 2022
Forecast type: TEMPORARY: The following changes expected for less than half the time period
Visibility: 1.86 miles (2.99 km)
Ceiling: 3000 feet AGL
Clouds: broken clouds at 3000 feet AGL
Weather: SHRA TSRA  (rain showers, rain associated with thunderstorm(s))